Mounds View, Minnesota
Current Conditions -  °F | °C
As of 6:55 AM on Friday 28 Nov 2014 (Local Time) from KANE Reporting Station
Overcast Overcast  
Wind Chill:   Ceiling: 7500
Heat Index: 16°   Visibility: 10mi
Dew Point: 10°   Wind: 8mph
Humidity: 79%   Direction: 110°ESE
Pressure: 30.02"   Gusts: NA
Location:  45.0755°N, 93.1911°W
Report Text: KANE 281255Z 11007KT 10SM SCT026 OVC075 M09/M12 A3002
Loading
Personal Weather Stations






























Interactive Weather Map New forecast layout! Learn more

10-Day Weather Forecast

Advertisements
Track Severe Weather on mobile